sensor_id;sensor_type;location;lat;lon;timestamp;noise_LAeq;noise_LA_min;noise_LA_max;noise_LA01;noise_LA95
64036;Laerm;50280;49.864;8.638;2023-02-25T00:01:04;38.39;34.79;55.81;;
64036;Laerm;50280;49.864;8.638;2023-02-25T00:03:37;38.58;33.85;56.88;;
64036;Laerm;50280;49.864;8.638;2023-02-25T00:06:11;39.86;33.41;63.33;;
64036;Laerm;50280;49.864;8.638;2023-02-25T00:08:45;41.10;33.40;53.43;;
64036;Laerm;50280;49.864;8.638;2023-02-25T00:11:19;41.42;32.93;55.82;;
64036;Laerm;50280;49.864;8.638;2023-02-25T00:13:53;37.59;32.87;56.04;;
64036;Laerm;50280;49.864;8.638;2023-02-25T00:16:25;37.38;33.47;55.70;;
64036;Laerm;50280;49.864;8.638;2023-02-25T00:18:57;37.67;33.80;52.47;;
64036;Laerm;50280;49.864;8.638;2023-02-25T00:21:30;36.78;32.53;53.07;;
64036;Laerm;50280;49.864;8.638;2023-02-25T00:24:02;37.78;34.14;55.92;;
64036;Laerm;50280;49.864;8.638;2023-02-25T00:26:36;37.55;33.75;55.45;;
64036;Laerm;50280;49.864;8.638;2023-02-25T00:29:08;38.22;34.29;59.93;;
64036;Laerm;50280;49.864;8.638;2023-02-25T00:31:40;39.10;35.15;55.62;;
64036;Laerm;50280;49.864;8.638;2023-02-25T00:34:12;38.54;34.70;51.03;;
64036;Laerm;50280;49.864;8.638;2023-02-25T00:36:44;39.15;35.25;55.43;;
64036;Laerm;50280;49.864;8.638;2023-02-25T00:39:16;39.17;36.07;56.09;;
64036;Laerm;50280;49.864;8.638;2023-02-25T00:41:50;39.39;34.99;57.00;;
64036;Laerm;50280;49.864;8.638;2023-02-25T00:44:22;38.58;35.11;54.80;;
64036;Laerm;50280;49.864;8.638;2023-02-25T00:46:54;41.19;35.96;55.47;;
64036;Laerm;50280;49.864;8.638;2023-02-25T00:49:26;39.21;35.50;52.08;;
64036;Laerm;50280;49.864;8.638;2023-02-25T00:51:58;41.51;36.07;63.83;;
64036;Laerm;50280;49.864;8.638;2023-02-25T00:54:30;39.47;34.69;57.12;;
64036;Laerm;50280;49.864;8.638;2023-02-25T00:57:05;39.32;35.25;55.93;;
64036;Laerm;50280;49.864;8.638;2023-02-25T00:59:37;40.69;35.74;58.60;;
64036;Laerm;50280;49.864;8.638;2023-02-25T01:02:09;39.27;35.32;55.96;;
64036;Laerm;50280;49.864;8.638;2023-02-25T01:04:41;40.57;36.44;58.24;;
64036;Laerm;50280;49.864;8.638;2023-02-25T01:07:14;42.30;35.89;52.94;;
64036;Laerm;50280;49.864;8.638;2023-02-25T01:09:46;38.94;35.78;54.97;;
64036;Laerm;50280;49.864;8.638;2023-02-25T01:12:19;38.97;35.64;53.80;;
64036;Laerm;50280;49.864;8.638;2023-02-25T01:14:54;40.49;35.35;56.76;;
64036;Laerm;50280;49.864;8.638;2023-02-25T01:17:26;38.40;35.55;55.74;;
64036;Laerm;50280;49.864;8.638;2023-02-25T01:19:58;42.09;35.55;55.95;;
64036;Laerm;50280;49.864;8.638;2023-02-25T01:22:30;39.74;35.19;53.85;;
64036;Laerm;50280;49.864;8.638;2023-02-25T01:25:02;40.52;35.41;51.79;;
64036;Laerm;50280;49.864;8.638;2023-02-25T01:27:36;39.62;35.01;55.95;;
64036;Laerm;50280;49.864;8.638;2023-02-25T01:30:09;38.97;34.46;53.97;;
64036;Laerm;50280;49.864;8.638;2023-02-25T01:32:42;38.01;34.56;52.53;;
64036;Laerm;50280;49.864;8.638;2023-02-25T01:35:14;38.43;34.80;54.78;;
64036;Laerm;50280;49.864;8.638;2023-02-25T01:37:46;39.91;35.87;61.31;;
64036;Laerm;50280;49.864;8.638;2023-02-25T01:40:18;42.08;36.60;61.34;;
64036;Laerm;50280;49.864;8.638;2023-02-25T01:42:51;40.74;36.62;56.22;;
64036;Laerm;50280;49.864;8.638;2023-02-25T01:45:28;41.73;37.30;59.54;;
64036;Laerm;50280;49.864;8.638;2023-02-25T01:48:07;39.96;36.06;56.67;;
64036;Laerm;50280;49.864;8.638;2023-02-25T01:50:46;39.57;35.86;58.12;;
64036;Laerm;50280;49.864;8.638;2023-02-25T01:53:23;41.01;36.23;55.06;;
64036;Laerm;50280;49.864;8.638;2023-02-25T01:55:59;41.01;35.82;57.92;;
64036;Laerm;50280;49.864;8.638;2023-02-25T01:58:34;42.91;36.30;54.49;;
64036;Laerm;50280;49.864;8.638;2023-02-25T02:01:07;40.87;36.83;63.10;;
64036;Laerm;50280;49.864;8.638;2023-02-25T02:03:43;40.35;36.18;52.50;;
64036;Laerm;50280;49.864;8.638;2023-02-25T02:06:18;39.49;36.43;52.49;;
64036;Laerm;50280;49.864;8.638;2023-02-25T02:08:54;39.73;35.91;57.61;;
64036;Laerm;50280;49.864;8.638;2023-02-25T02:11:27;40.04;36.15;54.16;;
64036;Laerm;50280;49.864;8.638;2023-02-25T02:14:01;39.90;36.32;53.98;;
64036;Laerm;50280;49.864;8.638;2023-02-25T02:17:08;39.60;35.74;54.77;;
64036;Laerm;50280;49.864;8.638;2023-02-25T02:20:08;39.54;35.89;51.86;;
64036;Laerm;50280;49.864;8.638;2023-02-25T02:22:57;40.37;36.60;55.70;;
64036;Laerm;50280;49.864;8.638;2023-02-25T02:30:05;41.54;36.10;55.82;;
64036;Laerm;50280;49.864;8.638;2023-02-25T02:32:55;40.02;36.30;54.56;;
64036;Laerm;50280;49.864;8.638;2023-02-25T02:35:37;41.24;35.85;54.91;;
64036;Laerm;50280;49.864;8.638;2023-02-25T02:38:24;38.91;35.25;56.44;;
64036;Laerm;50280;49.864;8.638;2023-02-25T02:41:09;39.43;35.60;55.85;;
64036;Laerm;50280;49.864;8.638;2023-02-25T02:44:00;41.25;36.59;65.68;;
64036;Laerm;50280;49.864;8.638;2023-02-25T02:46:38;40.18;35.73;59.12;;
64036;Laerm;50280;49.864;8.638;2023-02-25T02:49:19;39.40;35.51;55.51;;
64036;Laerm;50280;49.864;8.638;2023-02-25T02:52:01;39.07;35.72;56.62;;
64036;Laerm;50280;49.864;8.638;2023-02-25T02:54:37;39.31;36.02;51.13;;
64036;Laerm;50280;49.864;8.638;2023-02-25T02:57:13;40.14;35.31;56.48;;
64036;Laerm;50280;49.864;8.638;2023-02-25T02:59:51;41.74;37.18;50.37;;
64036;Laerm;50280;49.864;8.638;2023-02-25T03:02:29;41.72;37.58;59.41;;
64036;Laerm;50280;49.864;8.638;2023-02-25T03:05:10;41.79;36.81;54.63;;
64036;Laerm;50280;49.864;8.638;2023-02-25T03:07:50;40.68;36.49;55.59;;
64036;Laerm;50280;49.864;8.638;2023-02-25T03:10:26;41.10;36.63;67.61;;
64036;Laerm;50280;49.864;8.638;2023-02-25T03:12:59;39.73;36.11;57.22;;
64036;Laerm;50280;49.864;8.638;2023-02-25T03:15:32;38.91;35.74;55.41;;
64036;Laerm;50280;49.864;8.638;2023-02-25T03:18:13;38.48;35.43;52.51;;
64036;Laerm;50280;49.864;8.638;2023-02-25T03:20:55;38.94;35.48;54.76;;
64036;Laerm;50280;49.864;8.638;2023-02-25T03:23:31;40.11;36.16;57.29;;
64036;Laerm;50280;49.864;8.638;2023-02-25T03:26:11;39.70;36.11;59.31;;
64036;Laerm;50280;49.864;8.638;2023-02-25T03:28:51;39.10;36.03;54.59;;
64036;Laerm;50280;49.864;8.638;2023-02-25T03:31:24;39.79;35.37;58.29;;
64036;Laerm;50280;49.864;8.638;2023-02-25T03:34:02;40.44;36.66;55.67;;
64036;Laerm;50280;49.864;8.638;2023-02-25T03:36:41;39.10;35.71;58.50;;
64036;Laerm;50280;49.864;8.638;2023-02-25T03:39:21;39.17;35.74;54.04;;
64036;Laerm;50280;49.864;8.638;2023-02-25T03:42:00;39.90;35.93;56.50;;
64036;Laerm;50280;49.864;8.638;2023-02-25T03:44:38;39.77;36.23;57.08;;
64036;Laerm;50280;49.864;8.638;2023-02-25T03:47:16;41.19;36.08;57.99;;
64036;Laerm;50280;49.864;8.638;2023-02-25T03:49:56;39.55;36.08;61.22;;
64036;Laerm;50280;49.864;8.638;2023-02-25T03:52:33;39.75;36.08;56.83;;
64036;Laerm;50280;49.864;8.638;2023-02-25T03:55:07;40.52;35.91;48.23;;
64036;Laerm;50280;49.864;8.638;2023-02-25T03:57:44;41.34;36.03;56.88;;
64036;Laerm;50280;49.864;8.638;2023-02-25T04:00:22;41.57;36.90;52.74;;
64036;Laerm;50280;49.864;8.638;2023-02-25T04:02:55;42.49;37.22;54.41;;
64036;Laerm;50280;49.864;8.638;2023-02-25T04:05:31;39.48;36.16;51.65;;
64036;Laerm;50280;49.864;8.638;2023-02-25T04:08:04;40.44;36.61;54.58;;
64036;Laerm;50280;49.864;8.638;2023-02-25T04:10:37;41.43;37.70;53.88;;
64036;Laerm;50280;49.864;8.638;2023-02-25T04:13:09;41.03;37.17;54.16;;
64036;Laerm;50280;49.864;8.638;2023-02-25T04:15:42;41.59;36.95;56.66;;
64036;Laerm;50280;49.864;8.638;2023-02-25T04:18:14;40.60;36.78;54.04;;
64036;Laerm;50280;49.864;8.638;2023-02-25T04:20:47;41.84;37.52;59.90;;
64036;Laerm;50280;49.864;8.638;2023-02-25T04:23:20;43.34;37.55;64.37;;
64036;Laerm;50280;49.864;8.638;2023-02-25T04:25:52;42.34;37.60;57.71;;
64036;Laerm;50280;49.864;8.638;2023-02-25T04:28:24;42.70;37.77;57.59;;
64036;Laerm;50280;49.864;8.638;2023-02-25T04:30:56;42.91;37.37;60.54;;
64036;Laerm;50280;49.864;8.638;2023-02-25T04:33:28;42.37;38.25;60.19;;
64036;Laerm;50280;49.864;8.638;2023-02-25T04:36:00;43.39;38.17;62.35;;
64036;Laerm;50280;49.864;8.638;2023-02-25T04:38:34;42.59;37.40;55.45;;
64036;Laerm;50280;49.864;8.638;2023-02-25T04:41:06;42.63;38.29;57.05;;
64036;Laerm;50280;49.864;8.638;2023-02-25T04:43:38;42.53;38.42;63.25;;
64036;Laerm;50280;49.864;8.638;2023-02-25T04:46:10;41.49;37.17;51.73;;
64036;Laerm;50280;49.864;8.638;2023-02-25T04:48:43;42.31;37.49;54.43;;
64036;Laerm;50280;49.864;8.638;2023-02-25T04:51:15;42.35;38.40;53.28;;
64036;Laerm;50280;49.864;8.638;2023-02-25T04:53:49;43.40;38.69;55.09;;
64036;Laerm;50280;49.864;8.638;2023-02-25T04:56:21;42.25;37.92;57.84;;
64036;Laerm;50280;49.864;8.638;2023-02-25T04:58:55;42.09;38.20;55.53;;
64036;Laerm;50280;49.864;8.638;2023-02-25T05:01:28;44.51;37.42;65.20;;
64036;Laerm;50280;49.864;8.638;2023-02-25T05:04:00;43.65;38.36;55.95;;
64036;Laerm;50280;49.864;8.638;2023-02-25T05:06:32;44.00;39.14;56.08;;
64036;Laerm;50280;49.864;8.638;2023-02-25T05:09:05;44.39;38.36;56.87;;
64036;Laerm;50280;49.864;8.638;2023-02-25T05:11:38;42.69;38.00;51.27;;
64036;Laerm;50280;49.864;8.638;2023-02-25T05:14:10;42.03;38.33;64.54;;
64036;Laerm;50280;49.864;8.638;2023-02-25T05:16:42;43.06;38.55;56.13;;
64036;Laerm;50280;49.864;8.638;2023-02-25T05:19:14;43.77;38.33;55.18;;
64036;Laerm;50280;49.864;8.638;2023-02-25T05:21:48;44.92;38.96;62.28;;
64036;Laerm;50280;49.864;8.638;2023-02-25T05:24:22;46.42;37.78;56.73;;
64036;Laerm;50280;49.864;8.638;2023-02-25T05:26:54;44.16;38.24;59.34;;
64036;Laerm;50280;49.864;8.638;2023-02-25T05:29:26;45.06;38.58;59.07;;
64036;Laerm;50280;49.864;8.638;2023-02-25T05:31:58;43.66;39.29;57.16;;
64036;Laerm;50280;49.864;8.638;2023-02-25T05:34:30;43.26;39.00;51.54;;
64036;Laerm;50280;49.864;8.638;2023-02-25T05:37:02;43.07;38.69;62.69;;
64036;Laerm;50280;49.864;8.638;2023-02-25T05:39:36;48.77;39.04;67.10;;
64036;Laerm;50280;49.864;8.638;2023-02-25T05:42:08;46.53;38.90;63.43;;
64036;Laerm;50280;49.864;8.638;2023-02-25T05:44:40;42.84;37.55;60.42;;
64036;Laerm;50280;49.864;8.638;2023-02-25T05:47:12;43.08;37.65;54.39;;
64036;Laerm;50280;49.864;8.638;2023-02-25T05:49:44;45.51;38.09;58.73;;
64036;Laerm;50280;49.864;8.638;2023-02-25T05:52:16;42.91;39.38;56.93;;
64036;Laerm;50280;49.864;8.638;2023-02-25T05:54:49;44.92;39.14;55.28;;
64036;Laerm;50280;49.864;8.638;2023-02-25T05:57:21;43.39;39.30;58.04;;
64036;Laerm;50280;49.864;8.638;2023-02-25T05:59:54;48.54;38.44;64.59;;
64036;Laerm;50280;49.864;8.638;2023-02-25T06:02:26;47.83;38.58;62.33;;
64036;Laerm;50280;49.864;8.638;2023-02-25T06:04:58;49.10;38.62;60.03;;
64036;Laerm;50280;49.864;8.638;2023-02-25T06:07:31;46.50;39.09;57.43;;
64036;Laerm;50280;49.864;8.638;2023-02-25T06:10:05;50.30;39.30;62.25;;
64036;Laerm;50280;49.864;8.638;2023-02-25T06:12:38;50.33;38.84;66.81;;
64036;Laerm;50280;49.864;8.638;2023-02-25T06:15:10;49.85;39.52;63.96;;
64036;Laerm;50280;49.864;8.638;2023-02-25T06:17:42;52.55;39.77;65.44;;
64036;Laerm;50280;49.864;8.638;2023-02-25T06:20:16;50.13;40.01;62.88;;
64036;Laerm;50280;49.864;8.638;2023-02-25T06:22:48;52.05;39.41;65.55;;
64036;Laerm;50280;49.864;8.638;2023-02-25T06:25:22;51.61;39.09;67.90;;
64036;Laerm;50280;49.864;8.638;2023-02-25T06:27:54;51.46;40.35;66.74;;
64036;Laerm;50280;49.864;8.638;2023-02-25T06:30:27;50.96;40.66;63.04;;
64036;Laerm;50280;49.864;8.638;2023-02-25T06:32:59;49.78;40.41;62.42;;
64036;Laerm;50280;49.864;8.638;2023-02-25T06:35:32;49.97;40.16;62.59;;
64036;Laerm;50280;49.864;8.638;2023-02-25T06:38:04;49.66;40.26;61.37;;
64036;Laerm;50280;49.864;8.638;2023-02-25T06:40:38;47.62;39.83;61.56;;
64036;Laerm;50280;49.864;8.638;2023-02-25T06:43:10;49.78;40.64;60.32;;
64036;Laerm;50280;49.864;8.638;2023-02-25T06:45:42;48.24;39.40;61.79;;
64036;Laerm;50280;49.864;8.638;2023-02-25T06:48:14;45.56;39.42;64.50;;
64036;Laerm;50280;49.864;8.638;2023-02-25T06:50:46;46.55;38.72;62.72;;
64036;Laerm;50280;49.864;8.638;2023-02-25T06:53:19;49.08;38.82;69.59;;
64036;Laerm;50280;49.864;8.638;2023-02-25T06:55:53;48.57;40.32;60.87;;
64036;Laerm;50280;49.864;8.638;2023-02-25T06:58:25;50.71;40.60;64.47;;
64036;Laerm;50280;49.864;8.638;2023-02-25T07:00:57;49.12;40.53;59.78;;
64036;Laerm;50280;49.864;8.638;2023-02-25T07:03:29;49.65;40.98;63.96;;
64036;Laerm;50280;49.864;8.638;2023-02-25T07:06:01;50.14;41.20;61.43;;
64036;Laerm;50280;49.864;8.638;2023-02-25T07:08:34;45.41;41.12;60.94;;
64036;Laerm;50280;49.864;8.638;2023-02-25T07:11:26;47.57;40.95;62.58;;
64036;Laerm;50280;49.864;8.638;2023-02-25T07:14:01;47.15;40.01;62.61;;
64036;Laerm;50280;49.864;8.638;2023-02-25T07:19:06;48.79;39.96;60.23;;
64036;Laerm;50280;49.864;8.638;2023-02-25T07:21:38;49.97;40.90;65.23;;
64036;Laerm;50280;49.864;8.638;2023-02-25T07:24:11;47.03;40.77;58.48;;
64036;Laerm;50280;49.864;8.638;2023-02-25T07:26:45;47.39;41.07;59.71;;
64036;Laerm;50280;49.864;8.638;2023-02-25T07:29:17;53.20;40.93;73.14;;
64036;Laerm;50280;49.864;8.638;2023-02-25T07:31:49;47.39;41.21;60.84;;
64036;Laerm;50280;49.864;8.638;2023-02-25T07:34:21;48.11;41.26;62.81;;
64036;Laerm;50280;49.864;8.638;2023-02-25T07:36:53;49.73;39.57;62.66;;
64036;Laerm;50280;49.864;8.638;2023-02-25T07:39:25;51.94;42.02;65.26;;
64036;Laerm;50280;49.864;8.638;2023-02-25T07:41:58;49.95;41.18;62.43;;
64036;Laerm;50280;49.864;8.638;2023-02-25T07:44:30;50.81;40.93;62.37;;
64036;Laerm;50280;49.864;8.638;2023-02-25T07:47:03;48.75;39.95;59.79;;
64036;Laerm;50280;49.864;8.638;2023-02-25T07:49:35;48.62;39.88;62.70;;
64036;Laerm;50280;49.864;8.638;2023-02-25T07:52:07;48.90;39.28;61.82;;
64036;Laerm;50280;49.864;8.638;2023-02-25T07:54:40;50.34;41.03;61.63;;
64036;Laerm;50280;49.864;8.638;2023-02-25T07:57:13;47.02;41.02;61.19;;
64036;Laerm;50280;49.864;8.638;2023-02-25T07:59:45;45.62;40.56;58.06;;
64036;Laerm;50280;49.864;8.638;2023-02-25T08:02:17;52.52;40.73;69.32;;
64036;Laerm;50280;49.864;8.638;2023-02-25T08:04:49;48.02;41.03;62.11;;
64036;Laerm;50280;49.864;8.638;2023-02-25T08:07:21;48.37;41.38;63.96;;
64036;Laerm;50280;49.864;8.638;2023-02-25T08:09:54;47.98;41.65;62.36;;
64036;Laerm;50280;49.864;8.638;2023-02-25T08:12:27;48.61;41.21;59.26;;
64036;Laerm;50280;49.864;8.638;2023-02-25T08:14:59;49.67;41.05;65.53;;
64036;Laerm;50280;49.864;8.638;2023-02-25T08:17:32;49.28;41.34;59.70;;
64036;Laerm;50280;49.864;8.638;2023-02-25T08:20:06;47.71;40.87;58.35;;
64036;Laerm;50280;49.864;8.638;2023-02-25T08:22:38;47.55;41.22;63.20;;
64036;Laerm;50280;49.864;8.638;2023-02-25T08:25:10;48.51;42.34;64.74;;
64036;Laerm;50280;49.864;8.638;2023-02-25T08:27:44;47.97;41.96;62.29;;
64036;Laerm;50280;49.864;8.638;2023-02-25T08:30:17;51.19;42.24;61.64;;
64036;Laerm;50280;49.864;8.638;2023-02-25T08:32:49;49.15;41.76;60.66;;
64036;Laerm;50280;49.864;8.638;2023-02-25T08:35:22;50.42;42.11;58.56;;
64036;Laerm;50280;49.864;8.638;2023-02-25T08:37:54;50.78;42.58;63.62;;
64036;Laerm;50280;49.864;8.638;2023-02-25T08:40:26;49.31;41.72;65.45;;
64036;Laerm;50280;49.864;8.638;2023-02-25T08:42:59;49.07;41.74;61.00;;
64036;Laerm;50280;49.864;8.638;2023-02-25T08:45:32;51.08;42.09;63.50;;
64036;Laerm;50280;49.864;8.638;2023-02-25T08:48:04;50.41;42.31;65.53;;
64036;Laerm;50280;49.864;8.638;2023-02-25T08:50:36;49.57;41.61;61.12;;
64036;Laerm;50280;49.864;8.638;2023-02-25T08:53:08;47.05;40.91;63.39;;
64036;Laerm;50280;49.864;8.638;2023-02-25T08:55:40;48.16;40.90;60.36;;
64036;Laerm;50280;49.864;8.638;2023-02-25T08:58:14;47.29;39.58;64.03;;
64036;Laerm;50280;49.864;8.638;2023-02-25T09:00:46;46.93;41.49;66.60;;
64036;Laerm;50280;49.864;8.638;2023-02-25T09:03:18;48.74;40.69;65.48;;
64036;Laerm;50280;49.864;8.638;2023-02-25T09:05:51;51.87;40.55;68.32;;
64036;Laerm;50280;49.864;8.638;2023-02-25T09:08:24;49.36;41.43;68.20;;
64036;Laerm;50280;49.864;8.638;2023-02-25T09:10:56;50.84;42.06;64.03;;
64036;Laerm;50280;49.864;8.638;2023-02-25T09:13:30;47.56;41.32;60.65;;
64036;Laerm;50280;49.864;8.638;2023-02-25T09:16:03;50.76;42.05;66.85;;
64036;Laerm;50280;49.864;8.638;2023-02-25T09:18:36;49.78;41.72;69.20;;
64036;Laerm;50280;49.864;8.638;2023-02-25T09:21:08;47.89;40.61;60.46;;
64036;Laerm;50280;49.864;8.638;2023-02-25T09:23:40;47.03;40.14;63.20;;
64036;Laerm;50280;49.864;8.638;2023-02-25T09:26:13;46.22;39.68;59.78;;
64036;Laerm;50280;49.864;8.638;2023-02-25T09:28:47;46.43;39.52;60.45;;
64036;Laerm;50280;49.864;8.638;2023-02-25T09:31:20;48.03;40.03;68.05;;
64036;Laerm;50280;49.864;8.638;2023-02-25T09:33:52;46.75;41.42;60.67;;
64036;Laerm;50280;49.864;8.638;2023-02-25T09:36:24;46.57;39.85;61.73;;
64036;Laerm;50280;49.864;8.638;2023-02-25T09:38:57;52.89;39.93;66.85;;
64036;Laerm;50280;49.864;8.638;2023-02-25T09:41:32;51.62;41.47;64.17;;
64036;Laerm;50280;49.864;8.638;2023-02-25T09:44:15;49.49;40.93;62.53;;
64036;Laerm;50280;49.864;8.638;2023-02-25T09:46:52;48.41;40.37;72.23;;
64036;Laerm;50280;49.864;8.638;2023-02-25T09:49:33;52.04;39.78;68.96;;
64036;Laerm;50280;49.864;8.638;2023-02-25T09:52:13;48.57;40.14;69.43;;
64036;Laerm;50280;49.864;8.638;2023-02-25T09:54:51;45.78;38.58;66.02;;
64036;Laerm;50280;49.864;8.638;2023-02-25T09:57:28;49.29;39.63;66.51;;
64036;Laerm;50280;49.864;8.638;2023-02-25T10:00:15;46.18;38.69;60.58;;
64036;Laerm;50280;49.864;8.638;2023-02-25T10:02:53;45.66;40.15;63.40;;
64036;Laerm;50280;49.864;8.638;2023-02-25T10:05:36;46.38;39.31;62.81;;
64036;Laerm;50280;49.864;8.638;2023-02-25T10:08:20;48.74;39.55;75.29;;
64036;Laerm;50280;49.864;8.638;2023-02-25T10:11:02;48.48;40.38;62.89;;
64036;Laerm;50280;49.864;8.638;2023-02-25T10:13:44;49.55;40.35;66.17;;
64036;Laerm;50280;49.864;8.638;2023-02-25T10:16:36;47.79;40.05;65.56;;
64036;Laerm;50280;49.864;8.638;2023-02-25T10:19:30;47.54;39.78;64.80;;
64036;Laerm;50280;49.864;8.638;2023-02-25T10:22:31;49.77;40.53;64.19;;
64036;Laerm;50280;49.864;8.638;2023-02-25T10:25:15;49.59;39.53;68.78;;
64036;Laerm;50280;49.864;8.638;2023-02-25T10:27:54;50.51;40.43;70.93;;
64036;Laerm;50280;49.864;8.638;2023-02-25T10:30:46;46.95;39.11;66.77;;
64036;Laerm;50280;49.864;8.638;2023-02-25T10:33:24;46.87;39.59;65.91;;
64036;Laerm;50280;49.864;8.638;2023-02-25T10:36:03;48.95;40.22;62.11;;
64036;Laerm;50280;49.864;8.638;2023-02-25T10:38:41;49.16;40.44;69.16;;
64036;Laerm;50280;49.864;8.638;2023-02-25T10:41:16;51.05;39.19;65.27;;
64036;Laerm;50280;49.864;8.638;2023-02-25T10:43:49;51.84;39.58;66.25;;
64036;Laerm;50280;49.864;8.638;2023-02-25T10:46:26;51.58;40.73;69.98;;
64036;Laerm;50280;49.864;8.638;2023-02-25T10:49:15;50.73;40.73;62.03;;
64036;Laerm;50280;49.864;8.638;2023-02-25T10:51:58;50.44;38.79;62.76;;
64036;Laerm;50280;49.864;8.638;2023-02-25T10:54:34;51.38;39.63;64.64;;
64036;Laerm;50280;49.864;8.638;2023-02-25T10:57:22;46.77;40.40;58.45;;
64036;Laerm;50280;49.864;8.638;2023-02-25T10:59:59;49.62;42.02;65.37;;
64036;Laerm;50280;49.864;8.638;2023-02-25T11:02:39;47.75;40.68;63.43;;
64036;Laerm;50280;49.864;8.638;2023-02-25T11:08:26;49.75;40.86;62.17;;
64036;Laerm;50280;49.864;8.638;2023-02-25T11:11:03;50.20;39.56;64.41;;
64036;Laerm;50280;49.864;8.638;2023-02-25T11:13:36;49.63;39.48;68.31;;
64036;Laerm;50280;49.864;8.638;2023-02-25T11:16:10;49.19;38.52;68.48;;
64036;Laerm;50280;49.864;8.638;2023-02-25T11:18:50;47.73;40.22;69.20;;
64036;Laerm;50280;49.864;8.638;2023-02-25T11:21:31;49.33;40.02;72.37;;
64036;Laerm;50280;49.864;8.638;2023-02-25T11:24:11;46.70;40.98;61.55;;
64036;Laerm;50280;49.864;8.638;2023-02-25T11:26:49;46.54;39.81;62.66;;
64036;Laerm;50280;49.864;8.638;2023-02-25T11:29:26;46.80;39.57;71.14;;
64036;Laerm;50280;49.864;8.638;2023-02-25T11:32:08;45.50;39.61;69.15;;
64036;Laerm;50280;49.864;8.638;2023-02-25T11:34:45;44.77;39.16;61.05;;
64036;Laerm;50280;49.864;8.638;2023-02-25T11:37:30;44.48;37.91;60.38;;
64036;Laerm;50280;49.864;8.638;2023-02-25T11:40:26;44.48;37.97;57.99;;
64036;Laerm;50280;49.864;8.638;2023-02-25T11:43:14;45.19;38.54;59.60;;
64036;Laerm;50280;49.864;8.638;2023-02-25T11:45:53;44.09;38.93;58.92;;
64036;Laerm;50280;49.864;8.638;2023-02-25T11:48:30;44.55;39.24;57.55;;
64036;Laerm;50280;49.864;8.638;2023-02-25T11:51:23;43.71;38.26;59.02;;
64036;Laerm;50280;49.864;8.638;2023-02-25T11:54:19;49.81;37.84;77.73;;
64036;Laerm;50280;49.864;8.638;2023-02-25T11:57:04;49.15;40.46;77.51;;
64036;Laerm;50280;49.864;8.638;2023-02-25T11:59:47;48.04;39.94;66.47;;
64036;Laerm;50280;49.864;8.638;2023-02-25T12:02:43;47.39;39.59;65.07;;
64036;Laerm;50280;49.864;8.638;2023-02-25T12:05:35;48.79;37.89;63.74;;
64036;Laerm;50280;49.864;8.638;2023-02-25T12:08:43;43.89;38.63;62.86;;
64036;Laerm;50280;49.864;8.638;2023-02-25T12:11:54;45.51;38.67;67.84;;
64036;Laerm;50280;49.864;8.638;2023-02-25T12:15:15;44.39;39.20;56.10;;
64036;Laerm;50280;49.864;8.638;2023-02-25T12:18:19;46.74;38.17;68.39;;
64036;Laerm;50280;49.864;8.638;2023-02-25T12:21:37;47.08;38.12;61.25;;
64036;Laerm;50280;49.864;8.638;2023-02-25T12:24:54;46.87;39.00;59.56;;
64036;Laerm;50280;49.864;8.638;2023-02-25T12:28:03;49.00;38.31;66.70;;
64036;Laerm;50280;49.864;8.638;2023-02-25T12:31:05;43.09;38.31;63.78;;
64036;Laerm;50280;49.864;8.638;2023-02-25T12:34:20;46.80;39.55;66.95;;
64036;Laerm;50280;49.864;8.638;2023-02-25T12:37:12;44.93;38.32;60.07;;
64036;Laerm;50280;49.864;8.638;2023-02-25T12:40:04;45.80;39.87;60.96;;
64036;Laerm;50280;49.864;8.638;2023-02-25T12:43:02;47.23;38.90;61.73;;
64036;Laerm;50280;49.864;8.638;2023-02-25T12:46:07;47.65;39.98;67.52;;
64036;Laerm;50280;49.864;8.638;2023-02-25T12:49:11;44.47;38.94;62.29;;
64036;Laerm;50280;49.864;8.638;2023-02-25T12:52:05;46.19;39.75;64.02;;
64036;Laerm;50280;49.864;8.638;2023-02-25T12:55:18;46.00;39.31;62.44;;
64036;Laerm;50280;49.864;8.638;2023-02-25T12:58:27;46.26;40.00;57.71;;
64036;Laerm;50280;49.864;8.638;2023-02-25T13:01:21;44.90;39.57;57.57;;
64036;Laerm;50280;49.864;8.638;2023-02-25T13:04:30;46.07;40.07;64.02;;
64036;Laerm;50280;49.864;8.638;2023-02-25T13:07:29;47.41;39.61;57.67;;
64036;Laerm;50280;49.864;8.638;2023-02-25T13:10:34;46.81;38.20;60.10;;
64036;Laerm;50280;49.864;8.638;2023-02-25T13:13:29;48.04;40.02;66.20;;
64036;Laerm;50280;49.864;8.638;2023-02-25T13:16:31;45.88;38.04;59.04;;
64036;Laerm;50280;49.864;8.638;2023-02-25T13:19:22;44.69;37.69;56.36;;
64036;Laerm;50280;49.864;8.638;2023-02-25T13:22:21;42.70;38.78;53.54;;
64036;Laerm;50280;49.864;8.638;2023-02-25T13:25:13;43.51;37.72;57.96;;
64036;Laerm;50280;49.864;8.638;2023-02-25T13:27:58;49.48;38.41;70.55;;
64036;Laerm;50280;49.864;8.638;2023-02-25T13:30:47;45.36;38.32;59.15;;
64036;Laerm;50280;49.864;8.638;2023-02-25T13:36:56;46.92;36.72;58.70;;
64036;Laerm;50280;49.864;8.638;2023-02-25T13:43:20;45.20;37.33;60.48;;
64036;Laerm;50280;49.864;8.638;2023-02-25T13:46:28;43.40;37.32;62.69;;
64036;Laerm;50280;49.864;8.638;2023-02-25T13:49:34;44.66;36.25;71.67;;
64036;Laerm;50280;49.864;8.638;2023-02-25T13:52:42;43.98;36.63;62.79;;
64036;Laerm;50280;49.864;8.638;2023-02-25T13:55:37;42.05;36.57;59.60;;
64036;Laerm;50280;49.864;8.638;2023-02-25T14:01:58;43.80;36.31;61.86;;
64036;Laerm;50280;49.864;8.638;2023-02-25T14:08:06;46.16;35.87;63.13;;
64036;Laerm;50280;49.864;8.638;2023-02-25T14:11:00;45.90;37.64;61.84;;
64036;Laerm;50280;49.864;8.638;2023-02-25T14:14:17;44.62;37.50;62.59;;
64036;Laerm;50280;49.864;8.638;2023-02-25T14:17:27;45.40;38.08;69.72;;
64036;Laerm;50280;49.864;8.638;2023-02-25T14:20:22;45.50;37.35;63.09;;
64036;Laerm;50280;49.864;8.638;2023-02-25T14:23:12;45.04;38.30;59.44;;
64036;Laerm;50280;49.864;8.638;2023-02-25T14:26:09;49.64;38.33;63.54;;
64036;Laerm;50280;49.864;8.638;2023-02-25T14:29:03;50.20;38.58;62.03;;
64036;Laerm;50280;49.864;8.638;2023-02-25T14:32:03;53.69;41.82;62.56;;
64036;Laerm;50280;49.864;8.638;2023-02-25T14:35:14;54.61;42.04;62.96;;
64036;Laerm;50280;49.864;8.638;2023-02-25T14:38:06;49.72;39.23;61.36;;
64036;Laerm;50280;49.864;8.638;2023-02-25T14:40:42;46.20;38.42;59.15;;
64036;Laerm;50280;49.864;8.638;2023-02-25T14:43:28;45.96;38.46;59.32;;
64036;Laerm;50280;49.864;8.638;2023-02-25T14:46:10;45.20;38.00;58.62;;
64036;Laerm;50280;49.864;8.638;2023-02-25T14:48:59;50.99;39.94;73.55;;
64036;Laerm;50280;49.864;8.638;2023-02-25T14:52:06;51.77;41.55;65.15;;
64036;Laerm;50280;49.864;8.638;2023-02-25T14:55:05;53.73;42.22;65.48;;
64036;Laerm;50280;49.864;8.638;2023-02-25T14:58:10;50.17;43.63;67.98;;
64036;Laerm;50280;49.864;8.638;2023-02-25T15:01:21;48.56;42.77;62.74;;
64036;Laerm;50280;49.864;8.638;2023-02-25T15:04:39;47.79;41.86;61.53;;
64036;Laerm;50280;49.864;8.638;2023-02-25T15:07:41;48.05;43.00;65.15;;
64036;Laerm;50280;49.864;8.638;2023-02-25T15:10:51;46.53;41.58;62.54;;
64036;Laerm;50280;49.864;8.638;2023-02-25T15:14:06;53.64;42.44;79.61;;
64036;Laerm;50280;49.864;8.638;2023-02-25T15:17:08;47.60;39.73;65.06;;
64036;Laerm;50280;49.864;8.638;2023-02-25T15:20:12;49.44;40.27;64.36;;